Terminal Aerodrome Forecast
Issued by NWS Cleveland, OH

Home | Current Version | Previous Version | Graphics & Text | Print | Product List | Glossary On
Versions: 1 2 3 4 5 6 7 8 9 10 11 12 13 14 15 16 17 18 19 20 21
844
FTUS41 KCLE 271721
TAFCAK
TAF
KCAK 271721Z 2718/2818 24011KT P6SM SCT025 OVC035
     FM280000 VRB03KT P6SM SCT025 BKN050
     FM280500 10005KT 5SM -RA BR OVC025
     FM280700 05005KT 3SM -RA BR OVC007=

USA.gov is the U.S. government's official web portal to all federal, state and local government web resources and services.